createdAt,value
2019-05-29T00:01:31.873Z,11.91
2019-05-29T00:04:45.568Z,11.93
2019-05-29T00:07:59.090Z,11.88
2019-05-29T00:11:12.700Z,11.90
2019-05-29T00:14:27.581Z,11.86
2019-05-29T00:17:41.455Z,11.84
2019-05-29T00:20:54.970Z,11.79
2019-05-29T00:24:08.842Z,11.69
2019-05-29T00:27:22.369Z,11.68
2019-05-29T00:30:35.987Z,11.70
2019-05-29T00:33:49.815Z,11.71
2019-05-29T00:37:03.414Z,11.72
2019-05-29T00:40:17.237Z,11.75
2019-05-29T00:43:30.742Z,11.79
2019-05-29T00:46:44.245Z,11.78
2019-05-29T00:49:58.191Z,11.76
2019-05-29T00:53:12.200Z,11.71
2019-05-29T00:56:25.697Z,11.66
2019-05-29T00:59:39.319Z,11.62
2019-05-29T01:02:52.854Z,11.61
2019-05-29T01:06:06.357Z,11.66
2019-05-29T01:09:20.760Z,11.63
2019-05-29T01:12:34.701Z,11.71
2019-05-29T01:15:48.207Z,11.77
2019-05-29T01:19:20.348Z,11.71
2019-05-29T01:22:33.891Z,11.73
2019-05-29T01:25:47.497Z,11.71
2019-05-29T01:29:01.015Z,11.65
2019-05-29T01:32:15.501Z,11.68
2019-05-29T01:35:29.228Z,11.71
2019-05-29T01:38:43.262Z,11.74
2019-05-29T01:41:57.061Z,11.69
2019-05-29T01:45:11.085Z,11.67
2019-05-29T01:48:24.718Z,11.66
2019-05-29T01:51:38.423Z,11.68
2019-05-29T01:54:52.021Z,11.67
2019-05-29T01:58:05.631Z,11.62
2019-05-29T02:01:19.895Z,11.55
2019-05-29T02:04:33.838Z,11.56
2019-05-29T02:07:47.319Z,11.57
2019-05-29T02:11:00.818Z,11.54
2019-05-29T02:14:14.342Z,11.55
2019-05-29T02:17:28.052Z,11.53
2019-05-29T02:20:41.770Z,11.45
2019-05-29T02:23:55.271Z,11.43
2019-05-29T02:27:08.734Z,11.47
2019-05-29T02:30:26.057Z,11.53
2019-05-29T02:33:38.830Z,11.50
2019-05-29T02:36:52.310Z,11.50
2019-05-29T02:40:07.440Z,11.52
2019-05-29T02:43:21.409Z,11.55
2019-05-29T02:46:36.506Z,11.54
2019-05-29T02:49:50.029Z,11.59
2019-05-29T02:53:04.749Z,11.65
2019-05-29T02:56:18.247Z,11.64
2019-05-29T02:59:32.248Z,11.61
2019-05-29T03:02:45.914Z,11.44
2019-05-29T03:05:59.414Z,11.39
2019-05-29T03:09:13.037Z,11.42
2019-05-29T03:12:27.091Z,11.47
2019-05-29T03:15:40.983Z,11.48
2019-05-29T03:18:54.499Z,11.56
2019-05-29T03:22:07.971Z,11.53
2019-05-29T03:25:21.574Z,11.58
2019-05-29T03:28:35.425Z,11.56
2019-05-29T03:31:49.108Z,11.64
2019-05-29T03:35:03.218Z,11.68
2019-05-29T03:38:16.937Z,11.74
2019-05-29T03:41:30.458Z,11.75
2019-05-29T03:44:44.239Z,11.78
2019-05-29T03:47:57.905Z,11.82
2019-05-29T03:51:11.550Z,11.86
2019-05-29T03:54:26.683Z,11.87
2019-05-29T03:57:40.529Z,11.90
2019-05-29T04:00:54.037Z,11.87
2019-05-29T04:04:07.550Z,11.92
2019-05-29T04:07:21.025Z,11.97
2019-05-29T04:10:37.021Z,12.06
2019-05-29T04:13:50.019Z,12.12
2019-05-29T04:17:05.354Z,12.16
2019-05-29T04:20:19.004Z,12.13
2019-05-29T04:23:34.040Z,12.18
2019-05-29T04:26:49.997Z,12.18
2019-05-29T04:30:05.299Z,12.11
2019-05-29T04:33:18.804Z,12.15
2019-05-29T04:36:33.032Z,12.08
2019-05-29T04:39:47.945Z,12.06
2019-05-29T04:43:01.419Z,12.11
2019-05-29T04:46:15.038Z,12.21
2019-05-29T04:49:29.464Z,12.29
2019-05-29T04:52:44.982Z,12.34
2019-05-29T04:56:01.957Z,12.40
2019-05-29T04:59:15.470Z,12.46
2019-05-29T05:02:28.993Z,12.54
2019-05-29T05:05:42.503Z,12.61
2019-05-29T05:08:56.171Z,12.57
2019-05-29T05:12:10.221Z,12.64
2019-05-29T05:16:39.984Z,12.78
2019-05-29T05:19:53.486Z,12.81
2019-05-29T05:23:07.007Z,12.80
2019-05-29T05:26:20.606Z,12.73
2019-05-29T05:29:34.195Z,12.74
2019-05-29T05:32:47.952Z,12.77
2019-05-29T05:36:01.981Z,12.88
2019-05-29T05:39:15.896Z,13.03
2019-05-29T05:42:31.004Z,13.17
2019-05-29T05:45:44.617Z,13.29
2019-05-29T05:48:58.573Z,13.26
2019-05-29T05:52:12.341Z,13.36
2019-05-29T05:55:26.018Z,13.49
2019-05-29T05:58:39.985Z,13.56
2019-05-29T06:01:53.592Z,13.46
2019-05-29T06:05:07.328Z,13.34
2019-05-29T06:08:20.812Z,13.36
2019-05-29T06:11:34.545Z,13.32
2019-05-29T06:14:48.022Z,13.30
2019-05-29T06:18:19.959Z,13.38
2019-05-29T06:21:16.958Z,13.33
2019-05-29T06:24:30.442Z,13.47
2019-05-29T06:27:44.307Z,13.37
2019-05-29T06:30:57.937Z,13.34
2019-05-29T06:34:11.544Z,13.57
2019-05-29T06:37:25.055Z,13.78
2019-05-29T06:40:40.228Z,13.91
2019-05-29T06:43:53.863Z,13.85
2019-05-29T06:47:07.433Z,13.92
2019-05-29T06:50:21.050Z,13.97
2019-05-29T06:53:35.710Z,14.31
2019-05-29T06:56:49.334Z,14.29
2019-05-29T07:00:04.189Z,14.26
2019-05-29T07:03:17.991Z,14.35
2019-05-29T07:06:31.657Z,14.59
2019-05-29T07:09:45.289Z,14.63
2019-05-29T07:12:58.997Z,14.64
2019-05-29T07:16:12.622Z,14.87
2019-05-29T07:19:45.129Z,15.15
2019-05-29T07:22:42.997Z,15.41
2019-05-29T07:25:56.718Z,15.47
2019-05-29T07:29:10.230Z,15.99
2019-05-29T07:32:23.741Z,16.48
2019-05-29T07:35:37.533Z,16.73
2019-05-29T07:39:02.624Z,16.56
2019-05-29T07:42:06.434Z,16.49
2019-05-29T07:45:20.115Z,16.04
2019-05-29T07:48:33.601Z,15.95
2019-05-29T07:51:47.529Z,16.00
2019-05-29T07:55:02.238Z,16.10
2019-05-29T07:58:15.840Z,16.40
2019-05-29T08:01:30.552Z,16.55
2019-05-29T08:04:45.184Z,16.59
2019-05-29T08:07:58.854Z,16.81
2019-05-29T08:11:12.433Z,16.69
2019-05-29T08:14:26.213Z,16.15
2019-05-29T08:17:40.056Z,15.97
2019-05-29T08:20:53.607Z,16.10
2019-05-29T08:24:07.134Z,16.25
2019-05-29T08:27:21.018Z,16.38
2019-05-29T08:30:34.538Z,16.89
2019-05-29T08:33:48.971Z,17.31
2019-05-29T08:37:07.154Z,17.56
2019-05-29T08:40:18.962Z,17.10
2019-05-29T08:43:32.781Z,17.13
2019-05-29T08:47:08.214Z,17.37
2019-05-29T08:50:17.245Z,17.57
2019-05-29T08:53:17.466Z,17.56
2019-05-29T08:56:31.971Z,17.52
2019-05-29T08:59:46.382Z,17.54
2019-05-29T09:03:00.525Z,17.44
2019-05-29T09:06:14.578Z,17.33
2019-05-29T09:09:28.239Z,16.86
2019-05-29T09:12:45.913Z,17.18
2019-05-29T09:15:58.108Z,17.20
2019-05-29T09:19:12.132Z,17.31
2019-05-29T09:22:25.733Z,17.09
2019-05-29T09:25:39.252Z,17.11
2019-05-29T09:28:53.210Z,16.97
2019-05-29T09:32:07.013Z,17.46
2019-05-29T09:35:21.966Z,17.81
2019-05-29T09:38:36.115Z,18.04
2019-05-29T09:41:50.116Z,17.97
2019-05-29T09:45:04.920Z,18.04
2019-05-29T09:48:23.321Z,18.08
2019-05-29T09:51:35.754Z,18.08
2019-05-29T09:54:49.984Z,17.53
2019-05-29T09:58:04.513Z,17.93
2019-05-29T10:01:23.944Z,18.63
2019-05-29T10:04:33.794Z,18.69
2019-05-29T10:07:47.920Z,18.35
2019-05-29T10:11:08.691Z,18.09
2019-05-29T10:14:17.115Z,17.81
2019-05-29T10:17:30.833Z,17.90
2019-05-29T10:20:44.606Z,18.13
2019-05-29T10:23:59.590Z,18.36
2019-05-29T10:27:13.269Z,19.03
2019-05-29T10:30:27.438Z,19.46
2019-05-29T10:33:42.383Z,19.37
2019-05-29T10:36:55.940Z,19.25
2019-05-29T10:40:09.954Z,19.06
2019-05-29T10:43:33.611Z,19.06
2019-05-29T10:46:38.973Z,19.24
2019-05-29T10:49:53.779Z,19.47
2019-05-29T10:53:07.661Z,19.58
2019-05-29T10:56:21.782Z,19.45
2019-05-29T10:59:35.601Z,18.94
2019-05-29T11:02:50.171Z,18.94
2019-05-29T11:06:04.962Z,19.16
2019-05-29T11:09:18.903Z,19.62
2019-05-29T11:12:32.697Z,19.80
2019-05-29T11:15:46.517Z,19.73
2019-05-29T11:19:00.027Z,19.91
2019-05-29T11:22:25.620Z,20.11
2019-05-29T11:25:30.348Z,20.55
2019-05-29T11:28:48.365Z,20.82
2019-05-29T11:32:05.339Z,20.99
2019-05-29T11:35:19.723Z,21.15
2019-05-29T11:38:35.980Z,20.48
2019-05-29T11:41:50.562Z,19.63
2019-05-29T11:45:06.356Z,19.22
2019-05-29T11:48:20.445Z,19.35
2019-05-29T11:51:34.510Z,19.63
2019-05-29T11:54:48.771Z,20.11
2019-05-29T11:58:03.291Z,20.27
2019-05-29T12:01:20.763Z,20.21
2019-05-29T12:04:37.141Z,19.97
2019-05-29T12:07:53.323Z,19.69
2019-05-29T12:11:07.873Z,19.45
2019-05-29T12:16:40.649Z,20.27
2019-05-29T12:19:56.061Z,20.51
2019-05-29T12:23:25.074Z,21.06
2019-05-29T12:26:26.827Z,21.63
2019-05-29T12:29:43.295Z,21.97
2019-05-29T12:36:31.237Z,21.47
2019-05-29T12:39:45.629Z,20.73
2019-05-29T12:43:00.148Z,20.26
2019-05-29T12:46:14.215Z,19.68
2019-05-29T12:49:28.099Z,19.28
2019-05-29T12:52:42.363Z,20.01
2019-05-29T12:55:56.332Z,21.30
2019-05-29T12:59:09.835Z,21.66
2019-05-29T13:02:23.479Z,21.61
2019-05-29T13:05:37.137Z,21.50
2019-05-29T13:08:50.683Z,20.85
2019-05-29T13:12:04.856Z,20.57
2019-05-29T13:15:18.693Z,20.20
2019-05-29T13:18:33.119Z,19.84
2019-05-29T13:21:46.949Z,19.90
2019-05-29T13:25:01.286Z,20.22
2019-05-29T13:28:14.885Z,20.44
2019-05-29T13:31:28.800Z,21.07
2019-05-29T13:34:42.509Z,21.63
2019-05-29T13:37:56.922Z,22.32
2019-05-29T13:41:10.588Z,22.95
2019-05-29T13:44:24.104Z,22.66
2019-05-29T13:47:37.769Z,22.59
2019-05-29T13:50:51.506Z,23.16
2019-05-29T13:54:13.199Z,22.86
2019-05-29T13:57:20.702Z,22.51
2019-05-29T14:00:35.159Z,22.31
2019-05-29T14:03:50.657Z,21.76
2019-05-29T14:07:05.044Z,21.47
2019-05-29T14:10:19.127Z,21.40
2019-05-29T14:13:32.996Z,21.35
2019-05-29T14:16:46.753Z,21.51
2019-05-29T14:20:00.669Z,22.38
2019-05-29T14:23:14.314Z,22.75
2019-05-29T14:26:27.852Z,22.36
2019-05-29T14:29:41.384Z,22.12
2019-05-29T14:32:54.877Z,21.85
2019-05-29T14:36:09.305Z,21.37
2019-05-29T14:39:23.013Z,21.08
2019-05-29T14:42:36.709Z,21.20
2019-05-29T14:45:50.353Z,21.45
2019-05-29T14:49:04.376Z,21.63
2019-05-29T14:52:18.007Z,21.78
2019-05-29T14:55:31.689Z,21.85
2019-05-29T14:58:45.331Z,21.92
2019-05-29T15:01:58.875Z,21.93
2019-05-29T15:05:15.112Z,22.09
2019-05-29T15:08:28.737Z,22.28
2019-05-29T15:11:42.261Z,22.53
2019-05-29T15:14:56.128Z,23.12
2019-05-29T15:18:13.685Z,23.75
2019-05-29T15:21:25.149Z,23.65
2019-05-29T15:24:39.016Z,23.85
2019-05-29T15:27:52.540Z,23.87
2019-05-29T15:31:06.362Z,23.98
2019-05-29T15:34:20.265Z,24.08
2019-05-29T15:37:34.181Z,24.55
2019-05-29T15:40:47.722Z,25.05
2019-05-29T15:44:01.725Z,25.05
2019-05-29T15:47:15.419Z,25.30
2019-05-29T15:50:29.081Z,25.35
2019-05-29T15:53:42.846Z,25.58
2019-05-29T15:56:56.729Z,25.18
2019-05-29T16:00:11.407Z,25.21
2019-05-29T16:03:25.345Z,25.61
2019-05-29T16:06:38.826Z,26.89
2019-05-29T16:09:52.330Z,27.68
2019-05-29T16:13:05.953Z,26.91
2019-05-29T16:16:19.434Z,26.38
2019-05-29T16:19:32.950Z,24.90
2019-05-29T16:22:46.487Z,23.85
2019-05-29T16:26:00.760Z,23.09
2019-05-29T16:29:16.407Z,23.25
2019-05-29T16:32:30.088Z,24.97
2019-05-29T16:35:44.077Z,25.73
2019-05-29T16:38:57.655Z,27.08
2019-05-29T16:42:11.880Z,27.23
2019-05-29T16:45:25.713Z,27.69
2019-05-29T16:48:39.376Z,29.04
2019-05-29T16:51:53.018Z,30.48
2019-05-29T16:55:06.881Z,31.09
2019-05-29T16:58:21.294Z,31.58
2019-05-29T17:01:34.934Z,32.24
2019-05-29T17:04:48.656Z,32.84
2019-05-29T17:08:02.606Z,32.71
2019-05-29T17:11:16.375Z,32.82
2019-05-29T17:14:30.095Z,33.16
2019-05-29T17:17:43.849Z,33.19
2019-05-29T17:20:57.401Z,31.12
2019-05-29T17:24:11.087Z,26.78
2019-05-29T17:27:25.131Z,26.78
2019-05-29T17:30:39.080Z,25.25
2019-05-29T17:33:52.870Z,23.99
2019-05-29T17:37:06.688Z,22.88
2019-05-29T17:40:21.474Z,22.00
2019-05-29T17:43:35.582Z,21.48
2019-05-29T17:46:49.338Z,21.04
2019-05-29T17:50:04.664Z,20.63
2019-05-29T17:53:18.290Z,20.15
2019-05-29T17:56:36.720Z,19.81
2019-05-29T17:59:47.798Z,19.55
2019-05-29T18:03:01.544Z,19.80
2019-05-29T18:06:16.236Z,20.19
2019-05-29T18:09:30.495Z,20.93
2019-05-29T18:12:44.115Z,22.29
2019-05-29T18:15:58.177Z,22.74
2019-05-29T18:19:11.680Z,21.92
2019-05-29T18:22:25.716Z,20.97
2019-05-29T18:25:39.346Z,20.24
2019-05-29T18:28:53.246Z,19.65
2019-05-29T18:32:06.998Z,19.12
2019-05-29T18:35:20.833Z,18.74
2019-05-29T18:38:34.525Z,18.44
2019-05-29T18:41:48.132Z,18.16
2019-05-29T18:45:02.236Z,17.88
2019-05-29T18:48:15.911Z,17.66
2019-05-29T18:51:29.390Z,17.41
2019-05-29T18:54:42.930Z,17.11
2019-05-29T18:57:56.444Z,16.81
2019-05-29T19:01:10.042Z,16.62
2019-05-29T19:04:23.653Z,16.47
2019-05-29T19:07:37.245Z,16.30
2019-05-29T19:10:51.162Z,16.13
2019-05-29T19:14:04.959Z,15.96
2019-05-29T19:17:18.561Z,15.78
2019-05-29T19:20:32.603Z,15.59
2019-05-29T19:23:46.152Z,15.41
2019-05-29T19:27:00.047Z,15.22
2019-05-29T19:30:15.365Z,15.10
2019-05-29T19:33:29.382Z,14.93
2019-05-29T19:36:43.041Z,14.81
2019-05-29T19:39:56.560Z,14.64
2019-05-29T19:43:10.062Z,14.49
2019-05-29T19:46:24.471Z,14.33
2019-05-29T19:49:38.171Z,14.15
2019-05-29T19:52:52.282Z,14.05
2019-05-29T19:56:06.356Z,13.93
2019-05-29T19:59:20.202Z,13.68
2019-05-29T20:02:34.672Z,13.59
2019-05-29T20:05:48.302Z,13.47
2019-05-29T20:09:04.831Z,13.44
2019-05-29T20:12:18.400Z,13.33
2019-05-29T20:15:36.440Z,13.17
2019-05-29T20:18:50.063Z,13.16
2019-05-29T20:22:05.168Z,13.04
2019-05-29T20:25:21.557Z,12.98
2019-05-29T20:28:36.128Z,12.93
2019-05-29T20:31:49.912Z,12.78
2019-05-29T20:35:03.843Z,12.72
2019-05-29T20:38:17.330Z,12.62
2019-05-29T20:41:34.095Z,12.48
2019-05-29T20:44:46.620Z,12.43
2019-05-29T20:48:00.353Z,12.32
2019-05-29T20:51:14.181Z,12.24
2019-05-29T20:54:27.682Z,12.18
2019-05-29T20:57:42.171Z,12.13
2019-05-29T21:00:55.772Z,12.06
2019-05-29T21:04:09.258Z,12.05
2019-05-29T21:07:22.810Z,12.01
2019-05-29T21:10:37.213Z,11.92
2019-05-29T21:16:39.803Z,11.77
2019-05-29T21:19:53.478Z,11.60
2019-05-29T21:23:06.945Z,11.53
2019-05-29T21:26:20.685Z,11.49
2019-05-29T21:29:35.171Z,11.50
2019-05-29T21:32:48.806Z,11.44
2019-05-29T21:36:02.366Z,11.49
2019-05-29T21:39:15.875Z,11.47
2019-05-29T21:42:29.357Z,11.50
2019-05-29T21:45:43.176Z,11.48
2019-05-29T21:48:56.632Z,11.43
2019-05-29T21:52:10.128Z,11.38
2019-05-29T21:55:23.714Z,11.34
2019-05-29T21:58:37.553Z,11.33
2019-05-29T22:01:51.418Z,11.26
2019-05-29T22:05:06.403Z,11.26
2019-05-29T22:08:20.094Z,11.25
2019-05-29T22:11:33.694Z,11.24
2019-05-29T22:14:47.962Z,11.23
2019-05-29T22:18:01.584Z,11.23
2019-05-29T22:21:15.185Z,11.25
2019-05-29T22:24:28.670Z,11.30
2019-05-29T22:27:42.164Z,11.33
2019-05-29T22:30:55.763Z,11.36
2019-05-29T22:34:09.244Z,11.43
2019-05-29T22:37:22.860Z,11.46
2019-05-29T22:40:36.770Z,11.53
2019-05-29T22:43:51.378Z,11.58
2019-05-29T22:47:05.150Z,11.63
2019-05-29T22:50:18.741Z,11.66
2019-05-29T22:53:32.323Z,11.66
2019-05-29T22:56:45.816Z,11.68
2019-05-29T23:00:00.089Z,11.71
2019-05-29T23:03:14.038Z,11.73
2019-05-29T23:06:27.547Z,11.76
2019-05-29T23:09:41.024Z,11.84
2019-05-29T23:12:56.181Z,11.89
2019-05-29T23:16:10.077Z,11.91
2019-05-29T23:19:23.582Z,11.92
2019-05-29T23:22:37.179Z,11.94
2019-05-29T23:25:50.650Z,11.97
2019-05-29T23:29:04.274Z,11.97
2019-05-29T23:32:20.232Z,11.98
2019-05-29T23:35:33.724Z,11.99
2019-05-29T23:38:47.214Z,11.96
2019-05-29T23:42:01.577Z,11.98
2019-05-29T23:45:15.286Z,12.00
2019-05-29T23:48:28.765Z,12.04
2019-05-29T23:51:42.650Z,12.02
2019-05-29T23:54:56.166Z,12.00
2019-05-29T23:58:09.740Z,11.90
